createdAt,value
2023-04-05T00:01:13.653Z,69.00
2023-04-05T00:03:42.974Z,69.00
2023-04-05T00:06:13.098Z,69.00
2023-04-05T00:08:40.186Z,68.80
2023-04-05T00:11:06.888Z,68.80
2023-04-05T00:13:33.572Z,68.90
2023-04-05T00:16:01.977Z,69.00
2023-04-05T00:18:34.057Z,68.80
2023-04-05T00:21:01.276Z,68.80
2023-04-05T00:23:28.247Z,68.80
2023-04-05T00:25:54.900Z,68.80
2023-04-05T00:28:22.994Z,68.90
2023-04-05T00:30:52.356Z,69.00
2023-04-05T00:33:18.952Z,69.00
2023-04-05T00:35:45.538Z,69.00
2023-04-05T00:38:12.136Z,69.00
2023-04-05T00:40:38.794Z,69.00
2023-04-05T00:43:05.435Z,69.10
2023-04-05T00:45:32.302Z,69.10
2023-04-05T00:47:59.018Z,69.00
2023-04-05T00:50:30.883Z,69.00
2023-04-05T00:52:58.647Z,69.00
2023-04-05T00:55:26.926Z,69.20
2023-04-05T00:57:55.875Z,69.00
2023-04-05T01:00:23.026Z,69.10
2023-04-05T01:02:53.117Z,69.10
2023-04-05T01:05:43.075Z,68.90
2023-04-05T01:08:37.440Z,68.90
2023-04-05T01:11:06.732Z,68.80
2023-04-05T01:13:33.554Z,68.90
2023-04-05T01:16:00.401Z,68.90
2023-04-05T01:18:27.623Z,68.80
2023-04-05T01:21:10.557Z,69.00
2023-04-05T01:23:53.172Z,68.90
2023-04-05T01:27:14.244Z,68.80
2023-04-05T01:30:12.185Z,68.80
2023-04-05T01:33:08.817Z,68.80
2023-04-05T01:36:01.967Z,68.90
2023-04-05T01:38:30.197Z,69.00
2023-04-05T01:40:56.855Z,68.90
2023-04-05T01:43:23.496Z,68.90
2023-04-05T01:45:50.301Z,69.00
2023-04-05T01:48:16.918Z,69.00
2023-04-05T01:50:43.684Z,68.80
2023-04-05T01:53:10.775Z,68.80
2023-04-05T01:55:37.465Z,68.90
2023-04-05T01:58:04.173Z,68.80
2023-04-05T02:00:30.993Z,68.80
2023-04-05T02:02:58.044Z,68.80
2023-04-05T02:05:24.751Z,68.90
2023-04-05T02:07:51.593Z,68.90
2023-04-05T02:10:19.237Z,68.90
2023-04-05T02:12:46.191Z,68.90
2023-04-05T02:15:12.794Z,68.80
2023-04-05T02:17:39.916Z,68.80
2023-04-05T02:20:12.385Z,68.70
2023-04-05T02:22:40.023Z,68.70
2023-04-05T02:25:10.635Z,68.80
2023-04-05T02:27:37.273Z,68.70
2023-04-05T02:30:04.274Z,68.70
2023-04-05T02:32:31.977Z,68.70
2023-04-05T02:34:58.741Z,68.60
2023-04-05T02:37:27.051Z,68.70
2023-04-05T02:39:54.497Z,68.70
2023-04-05T02:42:21.303Z,68.80
2023-04-05T02:44:48.035Z,68.60
2023-04-05T02:47:21.515Z,68.80
2023-04-05T02:49:48.840Z,68.80
2023-04-05T02:52:16.175Z,68.90
2023-04-05T02:54:43.901Z,68.80
2023-04-05T02:57:11.644Z,68.80
2023-04-05T02:59:39.146Z,68.70
2023-04-05T03:02:07.196Z,68.70
2023-04-05T03:04:37.002Z,68.80
2023-04-05T03:07:04.872Z,68.80
2023-04-05T03:09:34.714Z,68.80
2023-04-05T03:12:03.602Z,68.70
2023-04-05T03:14:30.860Z,68.70
2023-04-05T03:16:57.863Z,68.80
2023-04-05T03:19:26.011Z,68.80
2023-04-05T03:21:53.822Z,68.80
2023-04-05T03:24:20.688Z,68.80
2023-04-05T03:26:48.158Z,68.70
2023-04-05T03:29:15.695Z,68.70
2023-04-05T03:31:42.541Z,68.70
2023-04-05T03:34:09.231Z,68.70
2023-04-05T03:36:41.998Z,68.70
2023-04-05T03:39:13.505Z,68.70
2023-04-05T03:41:41.102Z,68.70
2023-04-05T03:44:08.779Z,68.70
2023-04-05T03:46:38.024Z,68.60
2023-04-05T03:49:04.839Z,68.70
2023-04-05T03:51:32.659Z,68.70
2023-04-05T03:53:59.475Z,68.80
2023-04-05T03:56:27.111Z,68.70
2023-04-05T03:58:54.063Z,68.70
2023-04-05T04:01:20.811Z,68.80
2023-04-05T04:03:47.516Z,68.70
2023-04-05T04:06:14.978Z,68.70
2023-04-05T04:08:42.420Z,68.70
2023-04-05T04:11:09.107Z,68.60
2023-04-05T04:13:35.889Z,68.60
2023-04-05T04:16:03.755Z,68.50
2023-04-05T04:18:30.531Z,68.60
2023-04-05T04:20:58.625Z,68.70
2023-04-05T04:23:27.174Z,68.60
2023-04-05T04:25:54.636Z,68.50
2023-04-05T04:28:21.584Z,68.60
2023-04-05T04:30:48.249Z,68.50
2023-04-05T04:33:14.969Z,68.60
2023-04-05T04:35:42.483Z,68.50
2023-04-05T04:38:09.593Z,68.50
2023-04-05T04:40:41.444Z,68.50
2023-04-05T04:43:19.001Z,68.50
2023-04-05T04:45:48.163Z,68.40
2023-04-05T04:48:16.805Z,68.50
2023-04-05T04:50:44.697Z,68.50
2023-04-05T04:53:13.522Z,68.50
2023-04-05T04:55:43.703Z,68.50
2023-04-05T04:58:13.335Z,68.50
2023-04-05T05:00:42.069Z,68.50
2023-04-05T05:03:11.201Z,68.50
2023-04-05T05:05:44.196Z,68.60
2023-04-05T05:08:11.168Z,68.50
2023-04-05T05:10:37.964Z,68.50
2023-04-05T05:13:04.642Z,68.50
2023-04-05T05:15:31.357Z,68.60
2023-04-05T05:17:58.393Z,68.50
2023-04-05T05:20:28.594Z,68.60
2023-04-05T05:22:55.723Z,68.60
2023-04-05T05:25:22.716Z,68.60
2023-04-05T05:27:51.070Z,68.70
2023-04-05T05:30:18.852Z,68.60
2023-04-05T05:32:45.555Z,68.60
2023-04-05T05:35:12.199Z,68.60
2023-04-05T05:37:39.243Z,68.50
2023-04-05T05:40:06.674Z,68.60
2023-04-05T05:42:34.252Z,68.50
2023-04-05T05:45:05.900Z,68.60
2023-04-05T05:47:32.891Z,68.70
2023-04-05T05:49:59.595Z,68.60
2023-04-05T05:52:26.255Z,68.60
2023-04-05T05:54:52.843Z,68.70
2023-04-05T05:57:20.300Z,68.70
2023-04-05T05:59:46.987Z,68.70
2023-04-05T06:02:14.070Z,68.80
2023-04-05T06:04:40.881Z,68.80
2023-04-05T06:07:07.821Z,68.80
2023-04-05T06:09:35.235Z,68.90
2023-04-05T06:12:02.227Z,68.80
2023-04-05T06:14:29.828Z,69.00
2023-04-05T06:16:56.707Z,69.10
2023-04-05T06:19:23.465Z,69.20
2023-04-05T06:21:50.347Z,69.20
2023-04-05T06:24:16.990Z,69.30
2023-04-05T06:26:43.599Z,69.40
2023-04-05T06:29:10.245Z,69.60
2023-04-05T06:31:37.470Z,69.70
2023-04-05T06:34:04.516Z,69.80
2023-04-05T06:36:32.033Z,69.80
2023-04-05T06:38:59.620Z,70.00
2023-04-05T06:41:27.741Z,70.10
2023-04-05T06:43:54.979Z,70.20
2023-04-05T06:46:21.952Z,70.30
2023-04-05T06:48:49.886Z,70.40
2023-04-05T06:51:16.862Z,70.50
2023-04-05T06:53:43.689Z,70.70
2023-04-05T06:56:11.031Z,70.70
2023-04-05T06:58:37.637Z,70.90
2023-04-05T07:01:04.856Z,71.00
2023-04-05T07:03:32.550Z,71.00
2023-04-05T07:06:00.306Z,71.00
2023-04-05T07:08:28.646Z,71.10
2023-04-05T07:10:55.364Z,70.90
2023-04-05T07:13:23.489Z,70.90
2023-04-05T07:15:51.228Z,70.70
2023-04-05T07:18:19.168Z,70.70
2023-04-05T07:20:52.233Z,70.70
2023-04-05T07:23:19.989Z,70.60
2023-04-05T07:25:47.338Z,70.50
2023-04-05T07:28:14.002Z,70.40
2023-04-05T07:30:40.901Z,70.40
2023-04-05T07:33:07.898Z,70.60
2023-04-05T07:35:34.714Z,70.40
2023-04-05T07:38:01.454Z,70.50
2023-04-05T07:40:28.127Z,70.90
2023-04-05T07:42:54.959Z,71.30
2023-04-05T07:45:21.586Z,71.40
2023-04-05T07:47:48.283Z,71.60
2023-04-05T07:50:15.506Z,71.70
2023-04-05T07:52:44.768Z,71.90
2023-04-05T07:55:11.412Z,72.10
2023-04-05T07:57:38.070Z,72.30
2023-04-05T08:00:10.817Z,72.60
2023-04-05T08:02:37.694Z,73.00
2023-04-05T08:05:05.163Z,73.60
2023-04-05T08:07:31.932Z,73.90
2023-04-05T08:09:59.803Z,74.30
2023-04-05T08:12:27.126Z,75.00
2023-04-05T08:14:53.999Z,75.30
2023-04-05T08:17:20.748Z,75.20
2023-04-05T08:19:47.562Z,75.90
2023-04-05T08:22:16.496Z,76.00
2023-04-05T08:24:43.209Z,76.60
2023-04-05T08:27:09.922Z,76.40
2023-04-05T08:29:37.376Z,76.20
2023-04-05T08:32:04.499Z,76.20
2023-04-05T08:34:31.211Z,76.70
2023-04-05T08:37:00.938Z,76.70
2023-04-05T08:39:27.580Z,75.40
2023-04-05T08:42:06.261Z,76.20
2023-04-05T08:44:36.372Z,74.70
2023-04-05T08:47:03.232Z,75.70
2023-04-05T08:49:29.919Z,75.00
2023-04-05T08:51:59.194Z,75.50
2023-04-05T08:54:26.076Z,75.60
2023-04-05T08:56:54.584Z,75.70
2023-04-05T08:59:21.944Z,74.40
2023-04-05T09:01:50.205Z,73.70
2023-04-05T09:04:24.432Z,72.70
2023-04-05T09:06:52.287Z,70.50
2023-04-05T09:09:24.270Z,71.20
2023-04-05T09:11:51.172Z,72.50
2023-04-05T09:14:19.151Z,72.90
2023-04-05T09:16:46.178Z,72.40
2023-04-05T09:19:12.942Z,71.20
2023-04-05T09:21:59.989Z,70.20
2023-04-05T09:24:43.910Z,70.70
2023-04-05T09:27:20.456Z,71.00
2023-04-05T09:29:50.077Z,71.80
2023-04-05T09:32:20.503Z,73.50
2023-04-05T09:34:48.043Z,72.10
2023-04-05T09:37:19.923Z,72.20
2023-04-05T09:39:57.566Z,71.70
2023-04-05T09:42:24.656Z,70.80
2023-04-05T09:44:53.700Z,73.30
2023-04-05T09:47:31.458Z,73.40
2023-04-05T09:50:06.065Z,72.90
2023-04-05T09:52:32.945Z,73.30
2023-04-05T09:55:02.059Z,74.80
2023-04-05T09:57:33.256Z,74.60
2023-04-05T10:00:01.305Z,74.40
2023-04-05T10:02:39.591Z,73.60
2023-04-05T10:05:07.720Z,71.60
2023-04-05T10:07:35.398Z,72.30
2023-04-05T10:10:03.270Z,73.80
2023-04-05T10:12:32.514Z,74.00
2023-04-05T10:14:59.753Z,74.50
2023-04-05T10:17:39.100Z,73.80
2023-04-05T10:20:14.945Z,73.00
2023-04-05T10:22:52.397Z,72.70
2023-04-05T10:25:53.644Z,71.50
2023-04-05T10:28:37.491Z,71.80
2023-04-05T10:31:36.375Z,74.00
2023-04-05T10:34:11.181Z,75.00
2023-04-05T10:37:01.867Z,74.70
2023-04-05T10:39:33.524Z,76.30
2023-04-05T10:42:06.897Z,76.00
2023-04-05T10:44:36.234Z,75.70
2023-04-05T10:47:05.121Z,76.90
2023-04-05T10:49:37.862Z,72.70
2023-04-05T10:52:06.012Z,74.80
2023-04-05T10:54:37.367Z,74.30
2023-04-05T10:57:10.474Z,67.40
2023-04-05T10:59:43.509Z,72.20
2023-04-05T11:02:11.335Z,74.20
2023-04-05T11:04:41.702Z,74.90
2023-04-05T11:07:14.126Z,73.90
2023-04-05T11:09:53.598Z,73.60
2023-04-05T11:12:20.428Z,74.60
2023-04-05T11:14:47.177Z,75.30
2023-04-05T11:17:40.196Z,75.90
2023-04-05T11:20:11.820Z,76.30
2023-04-05T11:22:38.504Z,76.20
2023-04-05T11:25:06.407Z,76.90
2023-04-05T11:27:36.912Z,75.70
2023-04-05T11:30:05.446Z,76.90
2023-04-05T11:32:43.708Z,76.30
2023-04-05T11:35:25.740Z,76.90
2023-04-05T11:38:01.677Z,75.30
2023-04-05T11:40:31.936Z,74.70
2023-04-05T11:43:09.650Z,71.90
2023-04-05T11:45:39.079Z,73.50
2023-04-05T11:48:11.265Z,74.80
2023-04-05T11:50:39.733Z,77.30
2023-04-05T11:53:13.317Z,76.20
2023-04-05T11:55:51.077Z,72.80
2023-04-05T12:02:00.124Z,73.30
2023-04-05T12:04:26.759Z,75.70
2023-04-05T12:07:13.677Z,76.10
2023-04-05T18:41:00.037Z,73.90
2023-04-05T18:43:26.679Z,74.10
2023-04-05T18:45:56.154Z,74.10
2023-04-05T18:48:25.055Z,74.30
2023-04-05T18:50:53.801Z,74.20
2023-04-05T19:09:39.498Z,74.30
2023-04-05T19:12:06.336Z,74.20
2023-04-05T19:14:33.398Z,74.40
2023-04-05T19:36:14.991Z,74.30
2023-04-05T19:38:41.665Z,74.60
2023-04-05T19:41:08.310Z,74.60
2023-04-05T19:52:08.194Z,74.70
2023-04-05T19:54:36.546Z,74.90
2023-04-05T19:57:05.531Z,74.90
2023-04-05T20:52:05.182Z,75.70
2023-04-05T20:54:31.851Z,75.50
2023-04-05T20:56:58.524Z,75.70
2023-04-05T20:59:26.133Z,75.70
2023-04-05T21:09:37.850Z,75.40
2023-04-05T21:12:04.808Z,75.30
2023-04-05T21:14:31.503Z,75.50
2023-04-05T21:16:58.077Z,75.20
2023-04-05T21:19:24.857Z,75.30
2023-04-05T22:43:01.941Z,75.30
2023-04-05T22:45:28.707Z,75.40
2023-04-05T22:47:55.947Z,75.40
2023-04-05T22:50:22.617Z,75.50
2023-04-05T22:52:49.173Z,75.70
2023-04-05T22:55:15.935Z,75.70
2023-04-05T23:13:07.073Z,75.20
2023-04-05T23:15:33.812Z,75.20
2023-04-05T23:18:00.592Z,75.50
2023-04-05T23:20:27.206Z,75.50
2023-04-05T23:22:53.836Z,75.50
2023-04-05T23:48:27.192Z,75.30
2023-04-05T23:50:54.010Z,75.40
2023-04-05T23:53:20.880Z,75.50
2023-04-05T23:55:49.413Z,75.50
2023-04-05T23:58:16.046Z,75.50
